createdAt,value
2022-09-30T00:00:43.240Z,92.06
2022-09-30T00:01:43.340Z,91.96
2022-09-30T00:02:43.269Z,91.96
2022-09-30T00:03:43.315Z,91.96
2022-09-30T00:04:43.276Z,91.96
2022-09-30T00:05:43.218Z,91.89
2022-09-30T00:06:43.273Z,91.89
2022-09-30T00:07:43.126Z,91.89
2022-09-30T00:08:43.244Z,91.89
2022-09-30T00:09:43.219Z,91.89
2022-09-30T00:10:43.122Z,91.89
2022-09-30T00:11:43.193Z,92.00
2022-09-30T00:12:43.171Z,92.21
2022-09-30T00:13:43.237Z,92.31
2022-09-30T00:14:43.086Z,92.41
2022-09-30T00:15:43.115Z,92.41
2022-09-30T00:16:43.231Z,92.31
2022-09-30T00:17:43.083Z,92.21
2022-09-30T00:18:43.125Z,92.00
2022-09-30T00:19:43.045Z,92.00
2022-09-30T00:20:43.027Z,91.89
2022-09-30T00:21:43.000Z,91.89
2022-09-30T00:22:43.035Z,91.89
2022-09-30T00:23:43.052Z,91.89
2022-09-30T00:24:43.069Z,92.10
2022-09-30T00:25:42.986Z,92.00
2022-09-30T00:26:42.978Z,92.10
2022-09-30T00:27:42.987Z,92.21
2022-09-30T00:28:43.006Z,92.10
2022-09-30T00:29:42.973Z,92.10
2022-09-30T00:30:42.997Z,92.00
2022-09-30T00:31:43.200Z,92.00
2022-09-30T00:32:42.932Z,91.89
2022-09-30T00:33:43.138Z,91.89
2022-09-30T00:34:42.890Z,91.79
2022-09-30T00:35:42.868Z,91.83
2022-09-30T00:36:42.820Z,91.73
2022-09-30T00:37:42.904Z,91.69
2022-09-30T00:38:42.920Z,91.69
2022-09-30T00:39:42.816Z,91.79
2022-09-30T00:40:43.011Z,91.89
2022-09-30T00:41:42.980Z,92.04
2022-09-30T00:42:42.779Z,92.10
2022-09-30T00:43:42.775Z,92.00
2022-09-30T00:44:42.763Z,92.00
2022-09-30T00:45:42.826Z,92.00
2022-09-30T00:46:45.026Z,91.89
2022-09-30T00:47:42.782Z,91.89
2022-09-30T00:48:42.871Z,91.89
2022-09-30T00:49:42.780Z,91.89
2022-09-30T00:50:42.722Z,92.00
2022-09-30T00:51:42.734Z,92.10
2022-09-30T00:52:42.666Z,92.31
2022-09-30T00:53:42.631Z,92.51
2022-09-30T00:54:42.733Z,92.61
2022-09-30T00:55:43.626Z,92.72
2022-09-30T00:56:42.702Z,92.76
2022-09-30T00:57:42.632Z,92.86
2022-09-30T00:58:42.730Z,92.76
2022-09-30T00:59:42.678Z,92.76
2022-09-30T01:00:42.784Z,92.86
2022-09-30T01:01:42.574Z,92.97
2022-09-30T01:02:42.566Z,92.97
2022-09-30T01:03:42.660Z,92.97
2022-09-30T01:04:42.636Z,92.97
2022-09-30T01:05:42.650Z,92.97
2022-09-30T01:06:42.705Z,92.86
2022-09-30T01:07:42.664Z,92.86
2022-09-30T01:08:42.589Z,92.97
2022-09-30T01:09:42.603Z,92.86
2022-09-30T01:10:42.468Z,92.86
2022-09-30T01:11:42.562Z,92.97
2022-09-30T01:12:42.541Z,93.07
2022-09-30T01:13:42.453Z,93.18
2022-09-30T01:14:42.393Z,93.18
2022-09-30T01:15:42.475Z,93.28
2022-09-30T01:16:42.439Z,93.18
2022-09-30T01:17:42.498Z,93.28
2022-09-30T01:18:42.515Z,93.18
2022-09-30T01:19:42.393Z,93.28
2022-09-30T01:20:42.438Z,93.28
2022-09-30T01:21:42.410Z,93.28
2022-09-30T01:22:42.581Z,93.28
2022-09-30T01:23:42.426Z,93.28
2022-09-30T01:24:42.459Z,93.18
2022-09-30T01:25:42.376Z,93.07
2022-09-30T01:26:42.496Z,93.18
2022-09-30T01:27:42.419Z,93.18
2022-09-30T01:28:42.408Z,93.32
2022-09-30T01:29:42.403Z,93.32
2022-09-30T01:30:42.323Z,93.32
2022-09-30T01:31:42.467Z,93.43
2022-09-30T01:32:42.344Z,93.43
2022-09-30T01:33:42.666Z,93.43
2022-09-30T01:34:42.236Z,93.32
2022-09-30T01:35:42.267Z,93.43
2022-09-30T01:36:42.247Z,93.43
2022-09-30T01:37:42.151Z,93.32
2022-09-30T01:38:42.304Z,93.43
2022-09-30T01:39:42.502Z,93.32
2022-09-30T01:40:42.401Z,93.32
2022-09-30T01:41:42.226Z,93.32
2022-09-30T01:42:42.260Z,93.32
2022-09-30T01:43:42.297Z,93.32
2022-09-30T01:44:42.138Z,93.22
2022-09-30T01:45:42.086Z,93.22
2022-09-30T01:46:42.175Z,93.22
2022-09-30T01:47:42.173Z,93.22
2022-09-30T01:48:42.197Z,93.32
2022-09-30T01:49:42.018Z,93.43
2022-09-30T01:50:42.050Z,93.53
2022-09-30T01:51:42.141Z,93.63
2022-09-30T01:52:42.114Z,93.63
2022-09-30T01:53:42.047Z,93.63
2022-09-30T01:54:42.160Z,93.63
2022-09-30T01:55:42.114Z,93.63
2022-09-30T01:56:42.061Z,93.53
2022-09-30T01:57:42.168Z,93.53
2022-09-30T01:58:42.346Z,93.47
2022-09-30T01:59:42.229Z,93.37
2022-09-30T02:00:42.259Z,93.37
2022-09-30T02:01:42.025Z,93.47
2022-09-30T02:02:42.056Z,93.47
2022-09-30T02:03:42.198Z,93.37
2022-09-30T02:04:41.985Z,93.37
2022-09-30T02:05:41.980Z,93.37
2022-09-30T02:06:41.930Z,93.37
2022-09-30T02:07:42.031Z,93.47
2022-09-30T02:08:41.892Z,93.47
2022-09-30T02:09:41.950Z,93.47
2022-09-30T02:10:41.995Z,93.47
2022-09-30T02:11:41.934Z,93.47
2022-09-30T02:12:41.848Z,93.57
2022-09-30T02:13:41.859Z,93.68
2022-09-30T02:14:41.906Z,93.68
2022-09-30T02:15:41.877Z,93.68
2022-09-30T02:16:41.937Z,93.68
2022-09-30T02:17:41.832Z,93.78
2022-09-30T02:18:41.925Z,93.68
2022-09-30T02:19:41.845Z,93.57
2022-09-30T02:20:41.757Z,93.57
2022-09-30T02:21:41.827Z,93.68
2022-09-30T02:22:41.824Z,93.68
2022-09-30T02:23:41.830Z,93.78
2022-09-30T02:24:41.949Z,93.78
2022-09-30T02:25:41.780Z,93.88
2022-09-30T02:26:41.923Z,93.88
2022-09-30T02:27:41.658Z,93.98
2022-09-30T02:28:41.794Z,93.98
2022-09-30T02:29:41.591Z,93.98
2022-09-30T02:30:41.791Z,93.98
2022-09-30T02:31:41.976Z,93.98
2022-09-30T02:32:41.668Z,93.98
2022-09-30T02:33:41.926Z,94.09
2022-09-30T02:34:41.689Z,94.09
2022-09-30T02:35:41.636Z,93.98
2022-09-30T02:36:41.700Z,94.09
2022-09-30T02:37:41.805Z,94.09
2022-09-30T02:38:41.711Z,94.09
2022-09-30T02:39:41.529Z,94.09
2022-09-30T02:40:41.581Z,94.09
2022-09-30T02:41:41.872Z,93.98
2022-09-30T02:42:41.603Z,93.98
2022-09-30T02:43:41.845Z,93.98
2022-09-30T02:44:41.485Z,93.88
2022-09-30T02:45:41.705Z,93.98
2022-09-30T02:46:41.606Z,93.98
2022-09-30T02:47:41.733Z,93.98
2022-09-30T02:48:41.432Z,94.09
2022-09-30T02:49:41.616Z,94.09
2022-09-30T02:50:41.457Z,94.09
2022-09-30T02:51:41.444Z,93.98
2022-09-30T02:52:41.513Z,93.98
2022-09-30T02:53:41.393Z,93.98
2022-09-30T02:54:41.495Z,94.09
2022-09-30T02:55:41.421Z,94.09
2022-09-30T02:56:41.585Z,94.09
2022-09-30T02:57:41.437Z,94.09
2022-09-30T02:58:41.572Z,94.09
2022-09-30T02:59:41.634Z,94.09
2022-09-30T03:00:41.560Z,94.09
2022-09-30T03:01:41.587Z,94.09
2022-09-30T03:02:41.416Z,93.98
2022-09-30T03:03:41.357Z,93.98
2022-09-30T03:04:41.445Z,93.98
2022-09-30T03:05:41.426Z,93.88
2022-09-30T03:06:41.387Z,93.88
2022-09-30T03:07:41.333Z,93.98
2022-09-30T03:08:41.086Z,94.09
2022-09-30T03:09:41.305Z,94.09
2022-09-30T03:10:41.346Z,94.09
2022-09-30T03:11:41.232Z,94.09
2022-09-30T03:12:41.351Z,94.09
2022-09-30T03:13:41.294Z,94.19
2022-09-30T03:14:41.294Z,94.29
2022-09-30T03:15:41.145Z,94.29
2022-09-30T03:16:41.191Z,94.29
2022-09-30T03:17:41.183Z,94.29
2022-09-30T03:18:41.087Z,94.34
2022-09-30T03:19:41.175Z,94.34
2022-09-30T03:20:41.130Z,94.34
2022-09-30T03:21:41.352Z,94.34
2022-09-30T03:22:41.027Z,94.44
2022-09-30T03:23:40.993Z,94.44
2022-09-30T03:24:41.063Z,94.44
2022-09-30T03:25:41.026Z,94.44
2022-09-30T03:26:41.101Z,94.34
2022-09-30T03:27:41.111Z,94.34
2022-09-30T03:28:40.922Z,94.34
2022-09-30T03:29:40.930Z,94.23
2022-09-30T03:30:40.998Z,94.23
2022-09-30T03:31:41.107Z,94.23
2022-09-30T03:32:41.663Z,94.13
2022-09-30T03:33:40.877Z,94.13
2022-09-30T03:34:41.005Z,94.13
2022-09-30T03:35:40.987Z,94.13
2022-09-30T03:36:41.068Z,94.03
2022-09-30T03:37:40.851Z,94.03
2022-09-30T03:38:40.797Z,94.03
2022-09-30T03:39:40.731Z,94.13
2022-09-30T03:40:40.725Z,94.13
2022-09-30T03:41:40.800Z,94.13
2022-09-30T03:42:40.737Z,94.13
2022-09-30T03:43:40.743Z,94.13
2022-09-30T03:44:40.775Z,94.03
2022-09-30T03:45:40.719Z,93.93
2022-09-30T03:46:40.671Z,93.93
2022-09-30T03:47:40.606Z,93.93
2022-09-30T03:48:40.644Z,94.03
2022-09-30T03:49:40.619Z,94.13
2022-09-30T03:50:40.597Z,94.18
2022-09-30T03:51:40.580Z,94.13
2022-09-30T03:52:40.585Z,94.28
2022-09-30T03:53:40.603Z,94.28
2022-09-30T03:54:40.530Z,94.28
2022-09-30T03:55:40.653Z,94.28
2022-09-30T03:56:40.530Z,94.18
2022-09-30T03:57:40.505Z,94.18
2022-09-30T03:58:40.510Z,94.07
2022-09-30T03:59:40.539Z,93.97
2022-09-30T04:00:40.499Z,93.97
2022-09-30T04:01:40.498Z,93.87
2022-09-30T04:02:40.449Z,93.87
2022-09-30T04:03:40.440Z,93.87
2022-09-30T04:04:40.433Z,93.97
2022-09-30T04:05:40.430Z,93.97
2022-09-30T04:06:40.396Z,93.97
2022-09-30T04:07:40.381Z,93.97
2022-09-30T04:08:40.366Z,94.07
2022-09-30T04:09:40.648Z,94.07
2022-09-30T04:10:40.524Z,94.07
2022-09-30T04:11:40.422Z,94.18
2022-09-30T04:12:40.340Z,94.28
2022-09-30T04:13:40.347Z,94.28
2022-09-30T04:14:40.349Z,94.38
2022-09-30T04:15:40.334Z,94.48
2022-09-30T04:16:40.377Z,94.48
2022-09-30T04:17:40.311Z,94.48
2022-09-30T04:18:40.274Z,94.59
2022-09-30T04:19:40.473Z,94.48
2022-09-30T04:20:40.247Z,94.59
2022-09-30T04:21:40.250Z,94.59
2022-09-30T04:22:40.230Z,94.59
2022-09-30T04:23:40.200Z,94.59
2022-09-30T04:24:40.304Z,94.59
2022-09-30T04:25:40.189Z,94.59
2022-09-30T04:26:40.222Z,94.59
2022-09-30T04:27:40.165Z,94.59
2022-09-30T04:28:40.181Z,94.59
2022-09-30T04:29:40.218Z,94.48
2022-09-30T04:30:40.115Z,94.48
2022-09-30T04:31:40.178Z,94.38
2022-09-30T04:32:40.114Z,94.38
2022-09-30T04:33:40.128Z,94.38
2022-09-30T04:34:40.105Z,94.48
2022-09-30T04:35:40.117Z,94.48
2022-09-30T04:36:40.069Z,94.48
2022-09-30T04:37:40.035Z,94.59
2022-09-30T04:38:40.031Z,94.48
2022-09-30T04:39:40.043Z,94.48
2022-09-30T04:40:40.075Z,94.48
2022-09-30T04:41:40.065Z,94.48
2022-09-30T04:42:40.007Z,94.48
2022-09-30T04:43:39.981Z,94.48
2022-09-30T04:44:40.024Z,94.59
2022-09-30T04:45:40.059Z,94.59
2022-09-30T04:46:39.966Z,94.59
2022-09-30T04:47:39.926Z,94.59
2022-09-30T04:48:39.977Z,94.59
2022-09-30T04:49:39.937Z,94.59
2022-09-30T04:50:39.931Z,94.69
2022-09-30T04:51:39.992Z,94.59
2022-09-30T04:52:39.875Z,94.59
2022-09-30T04:53:39.894Z,94.69
2022-09-30T04:54:40.025Z,94.65
2022-09-30T04:55:39.841Z,94.69
2022-09-30T04:56:39.871Z,94.69
2022-09-30T04:57:39.834Z,94.65
2022-09-30T04:58:39.881Z,94.69
2022-09-30T04:59:39.801Z,94.69
2022-09-30T05:00:39.914Z,94.69
2022-09-30T05:01:39.859Z,94.65
2022-09-30T05:02:39.792Z,94.79
2022-09-30T05:03:39.771Z,94.79
2022-09-30T05:04:39.739Z,94.79
2022-09-30T05:05:39.719Z,94.69
2022-09-30T05:06:39.742Z,94.69
2022-09-30T05:07:39.716Z,94.69
2022-09-30T05:08:43.209Z,94.69
2022-09-30T05:09:39.765Z,94.69
2022-09-30T05:10:39.688Z,94.79
2022-09-30T05:11:39.706Z,94.79
2022-09-30T05:12:39.643Z,94.79
2022-09-30T05:13:39.660Z,94.79
2022-09-30T05:14:39.615Z,94.90
2022-09-30T05:15:39.607Z,94.90
2022-09-30T05:16:39.632Z,95.00
2022-09-30T05:17:39.597Z,95.00
2022-09-30T05:18:39.580Z,95.00
2022-09-30T05:19:39.599Z,95.00
2022-09-30T05:20:39.565Z,95.00
2022-09-30T05:21:39.563Z,95.00
2022-09-30T05:22:39.520Z,95.00
2022-09-30T05:23:39.553Z,95.00
2022-09-30T05:24:39.500Z,95.00
2022-09-30T05:25:39.494Z,95.10
2022-09-30T05:26:39.544Z,95.10
2022-09-30T05:27:39.494Z,95.10
2022-09-30T05:28:39.470Z,95.00
2022-09-30T05:29:39.469Z,95.21
2022-09-30T05:30:39.491Z,95.21
2022-09-30T05:31:39.513Z,95.10
2022-09-30T05:32:39.418Z,95.10
2022-09-30T05:33:39.422Z,95.10
2022-09-30T05:34:39.388Z,95.10
2022-09-30T05:35:39.384Z,95.00
2022-09-30T05:36:39.378Z,95.10
2022-09-30T05:37:39.389Z,95.10
2022-09-30T05:38:39.357Z,95.00
2022-09-30T05:39:39.340Z,95.00
2022-09-30T05:40:39.351Z,95.00
2022-09-30T05:41:39.338Z,95.10
2022-09-30T05:42:39.383Z,95.21
2022-09-30T05:43:39.293Z,95.21
2022-09-30T05:44:39.264Z,95.21
2022-09-30T05:45:39.295Z,95.10
2022-09-30T05:46:39.311Z,95.10
2022-09-30T05:47:39.269Z,95.06
2022-09-30T05:48:39.227Z,95.10
2022-09-30T05:49:39.217Z,95.10
2022-09-30T05:50:39.206Z,95.10
2022-09-30T05:51:39.198Z,95.10
2022-09-30T05:52:39.229Z,95.10
2022-09-30T05:53:39.225Z,95.10
2022-09-30T05:54:39.179Z,95.10
2022-09-30T05:55:39.428Z,95.10
2022-09-30T05:56:39.157Z,95.10
2022-09-30T05:57:39.128Z,95.10
2022-09-30T05:58:39.148Z,95.10
2022-09-30T05:59:39.140Z,95.10
2022-09-30T06:00:39.093Z,95.10
2022-09-30T06:01:39.142Z,95.10
2022-09-30T06:02:39.167Z,95.00
2022-09-30T06:03:39.111Z,95.06
2022-09-30T06:04:39.050Z,95.06
2022-09-30T06:05:39.050Z,95.06
2022-09-30T06:06:39.015Z,94.96
2022-09-30T06:07:39.049Z,94.96
2022-09-30T06:08:39.024Z,95.06
2022-09-30T06:09:39.059Z,95.17
2022-09-30T06:10:39.077Z,95.17
2022-09-30T06:11:38.973Z,95.17
2022-09-30T06:12:38.961Z,95.27
2022-09-30T06:13:38.972Z,95.17
2022-09-30T06:14:38.965Z,95.17
2022-09-30T06:15:38.977Z,95.17
2022-09-30T06:16:38.943Z,95.17
2022-09-30T06:17:38.911Z,95.12
2022-09-30T06:18:38.917Z,95.22
2022-09-30T06:19:38.902Z,95.32
2022-09-30T06:20:38.873Z,95.53
2022-09-30T06:21:38.844Z,96.05
2022-09-30T06:22:38.860Z,96.15
2022-09-30T06:23:38.860Z,96.15
2022-09-30T06:24:38.818Z,96.26
2022-09-30T06:25:38.852Z,96.52
2022-09-30T06:26:38.857Z,96.62
2022-09-30T06:27:38.786Z,96.83
2022-09-30T06:28:38.807Z,96.83
2022-09-30T06:29:38.816Z,96.73
2022-09-30T06:30:39.479Z,96.73
2022-09-30T06:31:38.817Z,96.73
2022-09-30T06:32:38.755Z,96.73
2022-09-30T06:33:38.755Z,96.62
2022-09-30T06:34:38.724Z,96.62
2022-09-30T06:35:38.709Z,96.62
2022-09-30T06:36:38.700Z,96.52
2022-09-30T06:37:38.672Z,96.52
2022-09-30T06:38:38.704Z,96.42
2022-09-30T06:39:38.640Z,96.48
2022-09-30T06:40:38.649Z,96.58
2022-09-30T06:41:38.643Z,96.58
2022-09-30T06:42:38.613Z,96.58
2022-09-30T06:43:43.717Z,96.58
2022-09-30T06:44:50.693Z,96.58
2022-09-30T06:45:38.699Z,96.79
2022-09-30T06:46:48.451Z,97.72
2022-09-30T06:47:39.753Z,98.19
2022-09-30T06:48:39.104Z,98.60
2022-09-30T06:49:48.588Z,98.70
2022-09-30T06:50:38.553Z,98.60
2022-09-30T06:51:38.514Z,98.55
2022-09-30T06:52:38.507Z,98.55
2022-09-30T06:53:38.491Z,98.45
2022-09-30T06:54:38.490Z,98.45
2022-09-30T06:55:38.662Z,98.24
2022-09-30T06:56:38.451Z,98.66
2022-09-30T06:57:38.472Z,98.76
2022-09-30T06:58:38.442Z,98.61
2022-09-30T06:59:38.445Z,98.82
2022-09-30T07:00:38.522Z,98.82
2022-09-30T07:01:38.414Z,98.92
2022-09-30T07:02:38.475Z,98.92
2022-09-30T07:03:38.401Z,99.02
2022-09-30T07:04:38.361Z,99.18
2022-09-30T07:05:38.412Z,99.29
2022-09-30T07:06:38.355Z,99.29
2022-09-30T07:07:38.334Z,99.18
2022-09-30T07:08:38.346Z,99.29
2022-09-30T07:09:38.402Z,99.24
2022-09-30T07:10:38.326Z,99.24
2022-09-30T07:11:38.385Z,99.24
2022-09-30T07:12:38.331Z,99.14
2022-09-30T07:13:38.335Z,99.24
2022-09-30T07:14:38.261Z,99.24
2022-09-30T07:15:38.329Z,99.04
2022-09-30T07:16:38.548Z,99.04
2022-09-30T07:17:38.227Z,99.19
2022-09-30T07:18:38.201Z,99.19
2022-09-30T07:19:38.214Z,99.09
2022-09-30T07:20:38.218Z,99.09
2022-09-30T07:21:38.180Z,99.09
2022-09-30T07:22:38.163Z,99.09
2022-09-30T07:23:38.158Z,99.15
2022-09-30T07:24:38.146Z,99.05
2022-09-30T07:25:38.164Z,98.94
2022-09-30T07:26:38.121Z,99.05
2022-09-30T07:27:38.108Z,98.94
2022-09-30T07:28:38.094Z,98.94
2022-09-30T07:30:04.023Z,98.79
2022-09-30T07:30:38.101Z,98.79
2022-09-30T07:31:38.174Z,98.79
2022-09-30T07:32:38.116Z,98.69
2022-09-30T07:33:38.048Z,98.69
2022-09-30T07:34:38.035Z,98.69
2022-09-30T07:35:38.140Z,98.65
2022-09-30T07:36:38.183Z,98.44
2022-09-30T07:37:37.984Z,98.44
2022-09-30T07:38:38.001Z,98.54
2022-09-30T07:39:37.986Z,98.44
2022-09-30T07:40:38.106Z,98.50
2022-09-30T07:41:38.137Z,98.39
2022-09-30T07:42:37.986Z,98.08
2022-09-30T07:43:37.928Z,98.08
2022-09-30T07:44:37.919Z,97.99
2022-09-30T07:45:37.978Z,97.67
2022-09-30T07:46:37.926Z,97.53
2022-09-30T07:47:37.919Z,97.42
2022-09-30T07:48:37.878Z,97.32
2022-09-30T07:49:37.869Z,97.12
2022-09-30T07:50:37.859Z,96.91
2022-09-30T07:51:37.899Z,96.87
2022-09-30T07:52:37.820Z,96.77
2022-09-30T07:53:37.850Z,96.45
2022-09-30T07:54:41.930Z,96.25
2022-09-30T07:55:37.820Z,96.04
2022-09-30T07:57:05.047Z,96.15
2022-09-30T07:57:37.767Z,95.84
2022-09-30T07:58:37.754Z,95.79
2022-09-30T07:59:37.750Z,95.79
2022-09-30T08:00:42.679Z,95.79
2022-09-30T08:01:37.854Z,95.59
2022-09-30T08:02:37.742Z,95.69
2022-09-30T08:03:37.727Z,95.39
2022-09-30T08:04:42.861Z,95.39
2022-09-30T08:05:37.697Z,95.34
2022-09-30T08:06:37.682Z,95.03
2022-09-30T08:07:37.652Z,94.83
2022-09-30T08:08:37.635Z,94.73
2022-09-30T08:09:37.693Z,94.62
2022-09-30T08:10:37.654Z,94.32
2022-09-30T08:11:37.610Z,94.58
2022-09-30T08:12:38.155Z,94.37
2022-09-30T08:13:37.596Z,93.80
2022-09-30T08:14:37.612Z,93.76
2022-09-30T08:15:37.565Z,93.55
2022-09-30T08:16:37.725Z,93.45
2022-09-30T08:17:37.539Z,93.55
2022-09-30T08:18:37.531Z,93.55
2022-09-30T08:19:37.520Z,93.45
2022-09-30T08:20:37.523Z,93.30
2022-09-30T08:21:37.491Z,93.20
2022-09-30T08:22:37.482Z,92.90
2022-09-30T08:23:37.487Z,92.90
2022-09-30T08:24:37.488Z,92.79
2022-09-30T08:25:37.508Z,92.90
2022-09-30T08:26:37.485Z,93.00
2022-09-30T08:27:37.457Z,92.79
2022-09-30T08:28:37.422Z,92.65
2022-09-30T08:30:37.452Z,92.14
2022-09-30T08:31:37.397Z,91.63
2022-09-30T08:32:37.384Z,91.31
2022-09-30T08:33:37.358Z,90.97
2022-09-30T08:34:37.359Z,90.77
2022-09-30T08:35:37.352Z,90.25
2022-09-30T08:36:37.356Z,90.56
2022-09-30T08:37:37.357Z,90.15
2022-09-30T08:38:37.369Z,89.90
2022-09-30T08:39:37.334Z,90.00
2022-09-30T08:40:37.296Z,90.21
2022-09-30T08:41:37.275Z,90.11
2022-09-30T08:42:39.491Z,90.37
2022-09-30T08:43:37.313Z,90.06
2022-09-30T08:44:37.281Z,89.76
2022-09-30T08:45:37.924Z,89.65
2022-09-30T08:46:37.216Z,88.74
2022-09-30T08:47:37.220Z,88.84
2022-09-30T08:48:37.251Z,88.94
2022-09-30T08:49:37.170Z,88.74
2022-09-30T08:50:37.205Z,88.43
2022-09-30T08:51:37.148Z,88.70
2022-09-30T08:52:48.287Z,88.59
2022-09-30T08:53:37.154Z,88.18
2022-09-30T08:54:40.145Z,88.08
2022-09-30T08:55:37.119Z,88.18
2022-09-30T08:56:37.105Z,88.04
2022-09-30T08:57:37.105Z,88.24
2022-09-30T08:58:37.087Z,88.35
2022-09-30T08:59:37.088Z,88.35
2022-09-30T09:00:37.071Z,88.00
2022-09-30T09:01:37.176Z,87.79
2022-09-30T09:02:37.086Z,87.32
2022-09-30T09:03:37.018Z,87.32
2022-09-30T09:04:37.009Z,87.63
2022-09-30T09:05:37.154Z,87.18
2022-09-30T09:06:36.974Z,87.38
2022-09-30T09:07:36.982Z,86.88
2022-09-30T09:08:36.966Z,86.98
2022-09-30T09:09:36.960Z,87.45
2022-09-30T09:10:36.973Z,87.24
2022-09-30T09:11:41.194Z,87.04
2022-09-30T09:12:36.936Z,87.00
2022-09-30T09:13:36.904Z,86.80
2022-09-30T09:14:36.883Z,86.80
2022-09-30T09:15:36.916Z,85.98
2022-09-30T09:16:36.989Z,85.88
2022-09-30T09:17:36.871Z,85.84
2022-09-30T09:18:36.886Z,85.63
2022-09-30T09:19:36.835Z,85.74
2022-09-30T09:20:36.870Z,85.53
2022-09-30T09:21:36.820Z,85.74
2022-09-30T09:22:36.802Z,85.69
2022-09-30T09:23:36.781Z,85.49
2022-09-30T09:24:36.803Z,85.49
2022-09-30T09:25:36.810Z,85.28
2022-09-30T09:26:36.793Z,85.19
2022-09-30T09:27:36.758Z,85.19
2022-09-30T09:28:36.745Z,85.28
2022-09-30T09:29:36.782Z,85.39
2022-09-30T09:30:37.013Z,85.14
2022-09-30T09:31:36.783Z,84.64
2022-09-30T09:32:36.732Z,83.82
2022-09-30T09:33:36.687Z,83.92
2022-09-30T09:34:39.566Z,82.40
2022-09-30T09:35:36.776Z,83.78
2022-09-30T09:36:36.938Z,83.48
2022-09-30T09:37:36.629Z,83.74
2022-09-30T09:38:36.660Z,83.34
2022-09-30T09:39:36.718Z,82.12
2022-09-30T09:40:36.680Z,83.09
2022-09-30T09:41:36.620Z,81.87
2022-09-30T09:42:36.621Z,80.99
2022-09-30T09:43:36.585Z,81.10
2022-09-30T09:44:36.614Z,81.57
2022-09-30T09:45:36.782Z,81.26
2022-09-30T09:46:36.632Z,81.26
2022-09-30T09:47:36.553Z,81.33
2022-09-30T09:48:36.582Z,80.11
2022-09-30T09:49:36.618Z,80.00
2022-09-30T09:50:36.541Z,79.09
2022-09-30T09:51:36.674Z,78.58
2022-09-30T09:52:36.589Z,78.48
2022-09-30T09:53:36.539Z,78.99
2022-09-30T09:54:36.485Z,78.78
2022-09-30T09:55:36.591Z,77.94
2022-09-30T09:56:36.671Z,78.24
2022-09-30T09:57:36.409Z,78.95
2022-09-30T09:58:36.426Z,77.12
2022-09-30T09:59:36.423Z,77.09
2022-09-30T10:00:36.406Z,77.19
2022-09-30T10:01:36.422Z,76.98
2022-09-30T10:02:36.398Z,77.90
2022-09-30T10:03:36.401Z,77.90
2022-09-30T10:04:36.380Z,78.10
2022-09-30T10:05:36.403Z,77.09
2022-09-30T10:06:36.439Z,77.25
2022-09-30T10:07:36.293Z,76.95
2022-09-30T10:08:36.360Z,76.03
2022-09-30T10:09:36.315Z,74.41
2022-09-30T10:10:36.522Z,74.62
2022-09-30T10:11:36.307Z,75.52
2022-09-30T10:12:36.333Z,75.79
2022-09-30T10:13:36.226Z,75.29
2022-09-30T10:14:36.220Z,75.19
2022-09-30T10:15:36.288Z,76.06
2022-09-30T10:16:36.256Z,74.27
2022-09-30T10:17:36.202Z,75.25
2022-09-30T10:18:36.198Z,75.96
2022-09-30T10:19:36.154Z,74.95
2022-09-30T10:20:36.297Z,75.32
2022-09-30T10:21:36.191Z,74.10
2022-09-30T10:22:36.287Z,74.61
2022-09-30T10:23:36.104Z,74.57
2022-09-30T10:24:36.130Z,73.56
2022-09-30T10:25:36.084Z,73.76
2022-09-30T10:26:36.089Z,72.24
2022-09-30T10:27:36.125Z,72.28
2022-09-30T10:28:36.047Z,73.09
2022-09-30T10:29:36.051Z,73.19
2022-09-30T10:30:36.088Z,73.49
2022-09-30T10:31:36.128Z,74.91
2022-09-30T10:32:36.033Z,74.57
2022-09-30T10:33:36.025Z,74.24
2022-09-30T10:34:36.142Z,73.63
2022-09-30T10:35:36.072Z,73.53
2022-09-30T10:36:35.988Z,75.01
2022-09-30T10:37:35.962Z,73.43
2022-09-30T10:38:36.009Z,71.44
2022-09-30T10:39:35.945Z,73.66
2022-09-30T10:40:35.956Z,72.01
2022-09-30T10:41:36.063Z,72.41
2022-09-30T10:42:35.902Z,71.40
2022-09-30T10:43:35.901Z,71.80
2022-09-30T10:44:35.914Z,71.53
2022-09-30T10:45:36.051Z,72.72
2022-09-30T10:46:35.917Z,72.61
2022-09-30T10:47:37.398Z,72.48
2022-09-30T10:48:35.850Z,71.47
2022-09-30T10:49:35.877Z,70.96
2022-09-30T10:50:35.872Z,71.77
2022-09-30T10:51:35.814Z,72.28
2022-09-30T10:52:35.858Z,72.04
2022-09-30T10:53:35.795Z,69.54
2022-09-30T10:54:36.068Z,70.45
2022-09-30T10:55:35.778Z,71.88
2022-09-30T10:56:35.770Z,70.65
2022-09-30T10:57:35.813Z,70.15
2022-09-30T10:58:35.741Z,70.86
2022-09-30T10:59:35.865Z,71.13
2022-09-30T11:00:35.775Z,70.93
2022-09-30T11:01:35.795Z,70.02
2022-09-30T11:02:35.693Z,71.03
2022-09-30T11:03:35.728Z,70.39
2022-09-30T11:04:35.819Z,71.17
2022-09-30T11:05:35.661Z,69.65
2022-09-30T11:06:35.627Z,69.65
2022-09-30T11:07:35.626Z,72.38
2022-09-30T11:08:35.892Z,71.13
2022-09-30T11:09:35.775Z,68.60
2022-09-30T11:10:35.944Z,68.94
2022-09-30T11:11:35.554Z,67.76
2022-09-30T11:12:35.646Z,69.89
2022-09-30T11:13:35.551Z,69.01
2022-09-30T11:14:35.537Z,69.54
2022-09-30T11:15:35.591Z,70.29
2022-09-30T11:16:35.632Z,70.79
2022-09-30T11:17:35.599Z,69.88
2022-09-30T11:18:35.507Z,69.14
2022-09-30T11:19:35.494Z,69.74
2022-09-30T11:20:35.509Z,70.36
2022-09-30T11:21:35.454Z,69.95
2022-09-30T11:22:35.495Z,71.37
2022-09-30T11:23:35.436Z,71.94
2022-09-30T11:24:35.432Z,70.76
2022-09-30T11:25:35.469Z,71.26
2022-09-30T11:26:35.399Z,69.57
2022-09-30T11:27:35.395Z,70.49
2022-09-30T11:28:35.381Z,71.50
2022-09-30T11:29:35.398Z,71.09
2022-09-30T11:30:35.356Z,69.98
2022-09-30T11:31:35.395Z,71.97
2022-09-30T11:32:35.350Z,70.05
2022-09-30T11:33:35.351Z,70.76
2022-09-30T11:34:35.284Z,69.92
2022-09-30T11:35:35.383Z,68.90
2022-09-30T11:36:35.344Z,71.60
2022-09-30T11:37:35.259Z,67.46
2022-09-30T11:38:35.289Z,67.39
2022-09-30T11:39:35.231Z,69.98
2022-09-30T11:40:35.248Z,67.15
2022-09-30T11:41:35.250Z,67.93
2022-09-30T11:42:35.226Z,67.80
2022-09-30T11:43:35.226Z,68.77
2022-09-30T11:44:35.182Z,67.56
2022-09-30T11:45:35.444Z,69.35
2022-09-30T11:46:35.380Z,67.53
2022-09-30T11:47:35.234Z,65.01
2022-09-30T11:48:35.200Z,64.53
2022-09-30T11:49:35.300Z,64.16
2022-09-30T11:50:35.157Z,65.34
2022-09-30T11:51:36.433Z,64.33
2022-09-30T11:52:35.184Z,64.36
2022-09-30T11:53:35.155Z,65.47
2022-09-30T11:54:35.141Z,66.78
2022-09-30T11:55:35.126Z,65.20
2022-09-30T11:56:35.166Z,66.11
2022-09-30T11:57:35.099Z,67.02
2022-09-30T11:58:42.626Z,65.73
2022-09-30T11:59:34.999Z,65.84
2022-09-30T12:00:35.025Z,66.11
2022-09-30T12:01:35.081Z,65.40
2022-09-30T12:02:35.000Z,66.58
2022-09-30T12:03:35.040Z,66.69
2022-09-30T12:04:34.981Z,65.88
2022-09-30T12:05:34.971Z,65.81
2022-09-30T12:06:34.944Z,65.84
2022-09-30T12:07:34.964Z,69.48
2022-09-30T12:08:34.973Z,67.55
2022-09-30T12:09:34.937Z,67.35
2022-09-30T12:10:35.087Z,68.87
2022-09-30T12:11:34.937Z,68.67
2022-09-30T12:12:34.927Z,70.05
2022-09-30T12:13:34.925Z,69.01
2022-09-30T12:14:34.941Z,69.58
2022-09-30T12:15:34.891Z,67.66
2022-09-30T12:16:35.016Z,66.18
2022-09-30T12:17:34.841Z,67.49
2022-09-30T12:18:34.843Z,67.83
2022-09-30T12:19:34.885Z,68.54
2022-09-30T12:20:34.823Z,67.93
2022-09-30T12:21:35.027Z,67.12
2022-09-30T12:22:34.736Z,66.11
2022-09-30T12:23:34.948Z,68.13
2022-09-30T12:24:34.752Z,66.38
2022-09-30T12:25:37.610Z,65.37
2022-09-30T12:26:34.756Z,64.16
2022-09-30T12:27:34.731Z,67.56
2022-09-30T12:28:34.700Z,65.98
2022-09-30T12:29:34.674Z,66.35
2022-09-30T12:30:34.649Z,64.87
2022-09-30T12:31:34.793Z,64.36
2022-09-30T12:32:34.665Z,65.00
2022-09-30T12:33:34.756Z,64.42
2022-09-30T12:34:34.728Z,66.75
2022-09-30T12:35:35.313Z,66.31
2022-09-30T12:36:34.594Z,65.33
2022-09-30T12:37:34.602Z,65.84
2022-09-30T12:38:34.576Z,65.16
2022-09-30T12:39:34.621Z,66.14
2022-09-30T12:40:34.638Z,65.30
2022-09-30T12:41:34.645Z,66.28
2022-09-30T12:42:34.540Z,65.07
2022-09-30T12:43:34.521Z,64.94
2022-09-30T12:44:34.501Z,63.52
2022-09-30T12:45:34.564Z,63.12
2022-09-30T12:46:34.503Z,64.00
2022-09-30T12:47:34.531Z,63.96
2022-09-30T12:48:34.463Z,63.62
2022-09-30T12:49:34.482Z,63.79
2022-09-30T12:50:34.447Z,63.76
2022-09-30T12:51:34.440Z,62.25
2022-09-30T12:52:34.420Z,60.64
2022-09-30T12:53:34.439Z,60.53